Terminal Aerodrome Forecast
Issued by NWS

Home | Current Version | Previous Version | Graphics & Text | Print | Product List | Glossary On
Versions: 1 2 3 4 5 6 7 8 9 10 11 12 13 14 15 16 17 18 19 20 21 22 23
000
FTUS43 KGRB 261046 AAB
TAFRHI
TAF AMD
KRHI 261046Z 2611/2706 22005KT 2SM BR OVC004
      TEMPO 2611/2613 1/2SM FG OVC002
     FM261400 21007KT P6SM SCT018 BKN025
     FM261900 24008G15KT P6SM SCT025 BKN040
     FM262200 23005KT P6SM SCT040 BKN250=

USA.gov is the U.S. government's official web portal to all federal, state and local government web resources and services.